Αρχική σελίδα
METAR-TAF:

METAR-TAF

Αεροδρόμια :

Κουρασάο, Ολλανδικές Αντίλλες

γεωγραφικό πλάτος: 12-12N, γεωγραφικό μήκος: 068-58W, υψόμετρο: 9 μ

Παρών καιρός

Η αναφορά έγινε 24 λεπτά πριν, στις 14:00 UTC
Άνεμος 18 kt από Α/NA
Θερμοκρασία 29°C
Υγρασία 62%
Πίεση 1014 hPa
Ορατότητα 10 χλμ και άνω
Λίγα νέφη σε ύψος 2200 πόδια

METAR: TNCC 101400Z 11018KT 9999 FEW022 29/21 Q1014 NOSIG

Χρόνος: 10:24 (14:24 UTC)

Πρόγνωση Καιρού

Η αναφορά έγινε 3 ώρες και 9 λεπτά πριν, στις 11:15 UTC
Η πρόγνωση ισχύει από τις 10 στις 12 UTC έως τις 11 στις 12 UTC
Άνεμος 14 kt από Α
Ορατότητα 10 χλμ και άνω
Διάσπαρτα νέφη σε ύψος 2200 πόδια
Πιθανότητα 40% :
Προσωρινά
από 10 στις 12 UTC έως τις 10 στις 23 UTC
Ορατότητα: 5000 μ
Αρκετά νέφη σε ύψος 1400 πόδια
Όμβροι

TAF: TNCC 101115Z 1012/1112 10014KT 9999 SCT022 PROB40 TEMPO 1012/1023 5000 SHRA BKN014

Μετεωρολογικές αναφορές και προγνώσεις για περισσότερα από 4000 αεροδρόμια (δελτία METAR και TAF).

Οι διαθέσιμοι σταθμοί απεικονίζονται στο χάρτη με κίτρινες και κόκκινες κουκκίδες.

Μετακινήστε το ποντίκι πάνω από τις κουκκίδες για να δείτε το όνομα του σταθμού.

Στη συνέχεια, κάντε κλικ για να δείτε τις μετεωρολογικές αναφορές και τις προγνώσεις καιρού.

Για να αλλάξετε το χάρτη: κάντε κλικ στα πράσινα κουμπιά με τον μαύρο σταυρό για να ζουμάρετε, στο πράσινο κουμπί με την παύλα για να αφαιρέσετε το ζουμ ή στα πράσινα βέλη για να αντιπαραβάλλετε χάρτες.


METAR-TAF: